sensor_id;sensor_type;location;lat;lon;timestamp;P1;durP1;ratioP1;P2;durP2;ratioP2
53931;SDS011;39844;52.496;13.482;2022-12-05T00:00:14;34.30;;;11.80;;
53931;SDS011;39844;52.496;13.482;2022-12-05T00:02:40;32.40;;;11.87;;
53931;SDS011;39844;52.496;13.482;2022-12-05T00:05:06;23.63;;;10.87;;
53931;SDS011;39844;52.496;13.482;2022-12-05T00:07:32;37.53;;;12.60;;
53931;SDS011;39844;52.496;13.482;2022-12-05T00:09:57;30.23;;;11.37;;
53931;SDS011;39844;52.496;13.482;2022-12-05T00:12:22;29.20;;;12.00;;
53931;SDS011;39844;52.496;13.482;2022-12-05T00:14:48;35.67;;;13.23;;
53931;SDS011;39844;52.496;13.482;2022-12-05T00:17:13;28.60;;;12.10;;
53931;SDS011;39844;52.496;13.482;2022-12-05T00:19:38;24.47;;;11.40;;
53931;SDS011;39844;52.496;13.482;2022-12-05T00:22:04;27.80;;;12.57;;
53931;SDS011;39844;52.496;13.482;2022-12-05T00:24:29;31.17;;;12.53;;
53931;SDS011;39844;52.496;13.482;2022-12-05T00:26:54;29.00;;;13.57;;
53931;SDS011;39844;52.496;13.482;2022-12-05T00:29:20;26.40;;;12.40;;
53931;SDS011;39844;52.496;13.482;2022-12-05T00:31:45;23.47;;;11.43;;
53931;SDS011;39844;52.496;13.482;2022-12-05T00:34:10;26.03;;;12.23;;
53931;SDS011;39844;52.496;13.482;2022-12-05T00:36:36;25.97;;;12.57;;
53931;SDS011;39844;52.496;13.482;2022-12-05T00:39:03;32.63;;;14.27;;
53931;SDS011;39844;52.496;13.482;2022-12-05T00:41:31;27.30;;;11.60;;
53931;SDS011;39844;52.496;13.482;2022-12-05T00:43:57;33.50;;;13.27;;
53931;SDS011;39844;52.496;13.482;2022-12-05T00:46:25;29.77;;;11.67;;
53931;SDS011;39844;52.496;13.482;2022-12-05T00:48:51;27.07;;;11.43;;
53931;SDS011;39844;52.496;13.482;2022-12-05T00:51:25;30.47;;;10.83;;
53931;SDS011;39844;52.496;13.482;2022-12-05T00:53:59;22.00;;;10.47;;
53931;SDS011;39844;52.496;13.482;2022-12-05T00:56:26;26.67;;;11.50;;
53931;SDS011;39844;52.496;13.482;2022-12-05T00:58:53;39.57;;;14.00;;
53931;SDS011;39844;52.496;13.482;2022-12-05T01:01:21;27.77;;;11.30;;
53931;SDS011;39844;52.496;13.482;2022-12-05T01:03:48;33.50;;;13.07;;
53931;SDS011;39844;52.496;13.482;2022-12-05T01:06:16;33.80;;;12.13;;
53931;SDS011;39844;52.496;13.482;2022-12-05T01:08:41;33.37;;;11.30;;
53931;SDS011;39844;52.496;13.482;2022-12-05T01:11:07;26.43;;;11.73;;
53931;SDS011;39844;52.496;13.482;2022-12-05T01:13:38;39.87;;;14.03;;
53931;SDS011;39844;52.496;13.482;2022-12-05T01:16:04;33.60;;;14.10;;
53931;SDS011;39844;52.496;13.482;2022-12-05T01:18:29;29.87;;;12.87;;
53931;SDS011;39844;52.496;13.482;2022-12-05T01:20:55;31.30;;;11.83;;
53931;SDS011;39844;52.496;13.482;2022-12-05T01:23:21;31.50;;;13.40;;
53931;SDS011;39844;52.496;13.482;2022-12-05T01:25:48;38.40;;;14.80;;
53931;SDS011;39844;52.496;13.482;2022-12-05T01:28:15;23.83;;;11.93;;
53931;SDS011;39844;52.496;13.482;2022-12-05T01:30:42;36.80;;;15.00;;
53931;SDS011;39844;52.496;13.482;2022-12-05T01:33:08;37.33;;;14.67;;
53931;SDS011;39844;52.496;13.482;2022-12-05T01:35:35;29.30;;;12.77;;
53931;SDS011;39844;52.496;13.482;2022-12-05T01:38:01;29.13;;;12.17;;
53931;SDS011;39844;52.496;13.482;2022-12-05T01:40:27;30.07;;;13.10;;
53931;SDS011;39844;52.496;13.482;2022-12-05T01:42:53;29.37;;;12.87;;
53931;SDS011;39844;52.496;13.482;2022-12-05T01:45:32;33.50;;;13.43;;
53931;SDS011;39844;52.496;13.482;2022-12-05T01:48:01;27.90;;;12.70;;
53931;SDS011;39844;52.496;13.482;2022-12-05T01:50:29;26.63;;;11.63;;
53931;SDS011;39844;52.496;13.482;2022-12-05T01:52:54;27.87;;;12.03;;
53931;SDS011;39844;52.496;13.482;2022-12-05T01:55:20;34.97;;;12.77;;
53931;SDS011;39844;52.496;13.482;2022-12-05T01:57:45;29.03;;;12.00;;
53931;SDS011;39844;52.496;13.482;2022-12-05T02:00:14;33.97;;;12.70;;
53931;SDS011;39844;52.496;13.482;2022-12-05T02:02:43;36.07;;;13.53;;
53931;SDS011;39844;52.496;13.482;2022-12-05T02:07:38;34.60;;;13.90;;
53931;SDS011;39844;52.496;13.482;2022-12-05T02:10:05;27.97;;;11.40;;
53931;SDS011;39844;52.496;13.482;2022-12-05T02:12:31;28.67;;;11.00;;
53931;SDS011;39844;52.496;13.482;2022-12-05T02:26:47;25.07;;;12.07;;
53931;SDS011;39844;52.496;13.482;2022-12-05T02:34:56;29.23;;;12.77;;
53931;SDS011;39844;52.496;13.482;2022-12-05T02:37:28;29.17;;;12.10;;
53931;SDS011;39844;52.496;13.482;2022-12-05T02:40:04;30.40;;;12.47;;
53931;SDS011;39844;52.496;13.482;2022-12-05T02:42:44;30.37;;;13.20;;
53931;SDS011;39844;52.496;13.482;2022-12-05T02:45:17;31.00;;;13.33;;
53931;SDS011;39844;52.496;13.482;2022-12-05T02:47:46;33.13;;;12.37;;
53931;SDS011;39844;52.496;13.482;2022-12-05T02:50:15;34.73;;;11.73;;
53931;SDS011;39844;52.496;13.482;2022-12-05T02:52:48;27.03;;;12.77;;
53931;SDS011;39844;52.496;13.482;2022-12-05T02:55:16;32.37;;;13.40;;
53931;SDS011;39844;52.496;13.482;2022-12-05T02:57:44;30.70;;;12.80;;
53931;SDS011;39844;52.496;13.482;2022-12-05T03:00:17;32.17;;;12.90;;
53931;SDS011;39844;52.496;13.482;2022-12-05T03:02:42;34.30;;;11.70;;
53931;SDS011;39844;52.496;13.482;2022-12-05T03:08:01;33.57;;;11.87;;
53931;SDS011;39844;52.496;13.482;2022-12-05T03:10:30;28.57;;;12.07;;
53931;SDS011;39844;52.496;13.482;2022-12-05T03:13:03;22.43;;;9.80;;
53931;SDS011;39844;52.496;13.482;2022-12-05T03:15:35;29.33;;;13.07;;
53931;SDS011;39844;52.496;13.482;2022-12-05T03:18:08;28.07;;;10.97;;
53931;SDS011;39844;52.496;13.482;2022-12-05T03:20:46;20.33;;;10.03;;
53931;SDS011;39844;52.496;13.482;2022-12-05T03:23:20;23.40;;;10.57;;
53931;SDS011;39844;52.496;13.482;2022-12-05T03:26:15;19.43;;;10.27;;
53931;SDS011;39844;52.496;13.482;2022-12-05T03:29:12;30.10;;;11.27;;
53931;SDS011;39844;52.496;13.482;2022-12-05T03:34:31;27.87;;;10.80;;
53931;SDS011;39844;52.496;13.482;2022-12-05T03:37:09;18.63;;;9.67;;
53931;SDS011;39844;52.496;13.482;2022-12-05T03:39:51;19.83;;;9.63;;
53931;SDS011;39844;52.496;13.482;2022-12-05T03:42:27;26.67;;;11.13;;
53931;SDS011;39844;52.496;13.482;2022-12-05T03:45:02;28.73;;;11.70;;
53931;SDS011;39844;52.496;13.482;2022-12-05T03:50:18;27.07;;;10.80;;
53931;SDS011;39844;52.496;13.482;2022-12-05T03:53:01;22.43;;;9.90;;
53931;SDS011;39844;52.496;13.482;2022-12-05T03:55:32;20.97;;;10.73;;
53931;SDS011;39844;52.496;13.482;2022-12-05T03:58:01;26.10;;;11.23;;
53931;SDS011;39844;52.496;13.482;2022-12-05T04:00:34;27.27;;;11.80;;
53931;SDS011;39844;52.496;13.482;2022-12-05T04:05:45;22.73;;;9.33;;
53931;SDS011;39844;52.496;13.482;2022-12-05T04:10:57;21.17;;;9.37;;
53931;SDS011;39844;52.496;13.482;2022-12-05T04:13:27;24.33;;;10.53;;
53931;SDS011;39844;52.496;13.482;2022-12-05T04:16:01;31.13;;;11.60;;
53931;SDS011;39844;52.496;13.482;2022-12-05T04:18:43;21.93;;;10.63;;
53931;SDS011;39844;52.496;13.482;2022-12-05T04:21:14;21.97;;;9.63;;
53931;SDS011;39844;52.496;13.482;2022-12-05T04:23:43;20.77;;;10.13;;
53931;SDS011;39844;52.496;13.482;2022-12-05T04:26:15;20.37;;;9.77;;
53931;SDS011;39844;52.496;13.482;2022-12-05T04:28:49;21.70;;;8.63;;
53931;SDS011;39844;52.496;13.482;2022-12-05T04:31:31;24.63;;;10.40;;
53931;SDS011;39844;52.496;13.482;2022-12-05T04:34:05;22.60;;;9.80;;
53931;SDS011;39844;52.496;13.482;2022-12-05T04:36:49;28.70;;;10.13;;
53931;SDS011;39844;52.496;13.482;2022-12-05T04:39:26;24.07;;;10.57;;
53931;SDS011;39844;52.496;13.482;2022-12-05T04:41:59;27.03;;;11.47;;
53931;SDS011;39844;52.496;13.482;2022-12-05T04:44:29;26.60;;;11.37;;
53931;SDS011;39844;52.496;13.482;2022-12-05T04:47:01;19.30;;;9.83;;
53931;SDS011;39844;52.496;13.482;2022-12-05T04:49:29;24.93;;;9.13;;
53931;SDS011;39844;52.496;13.482;2022-12-05T04:51:58;22.37;;;10.17;;
53931;SDS011;39844;52.496;13.482;2022-12-05T04:54:30;25.00;;;11.00;;
53931;SDS011;39844;52.496;13.482;2022-12-05T04:57:04;25.40;;;9.73;;
53931;SDS011;39844;52.496;13.482;2022-12-05T04:59:33;19.40;;;10.00;;
53931;SDS011;39844;52.496;13.482;2022-12-05T05:02:02;25.03;;;10.57;;
53931;SDS011;39844;52.496;13.482;2022-12-05T05:04:33;18.97;;;8.90;;
53931;SDS011;39844;52.496;13.482;2022-12-05T05:07:06;16.80;;;8.70;;
53931;SDS011;39844;52.496;13.482;2022-12-05T05:09:33;19.73;;;7.90;;
53931;SDS011;39844;52.496;13.482;2022-12-05T05:11:59;18.67;;;9.37;;
53931;SDS011;39844;52.496;13.482;2022-12-05T05:14:24;19.83;;;8.23;;
53931;SDS011;39844;52.496;13.482;2022-12-05T05:16:49;17.73;;;8.00;;
53931;SDS011;39844;52.496;13.482;2022-12-05T05:19:15;15.77;;;7.80;;
53931;SDS011;39844;52.496;13.482;2022-12-05T05:21:40;15.83;;;7.47;;
53931;SDS011;39844;52.496;13.482;2022-12-05T05:24:06;12.33;;;6.83;;
53931;SDS011;39844;52.496;13.482;2022-12-05T05:26:34;13.43;;;7.23;;
53931;SDS011;39844;52.496;13.482;2022-12-05T05:29:00;21.50;;;7.83;;
53931;SDS011;39844;52.496;13.482;2022-12-05T05:31:26;16.03;;;8.33;;
53931;SDS011;39844;52.496;13.482;2022-12-05T05:33:53;16.70;;;8.50;;
53931;SDS011;39844;52.496;13.482;2022-12-05T05:36:20;16.17;;;7.50;;
53931;SDS011;39844;52.496;13.482;2022-12-05T05:38:47;15.27;;;7.43;;
53931;SDS011;39844;52.496;13.482;2022-12-05T05:41:16;12.90;;;8.13;;
53931;SDS011;39844;52.496;13.482;2022-12-05T05:43:43;14.57;;;7.80;;
53931;SDS011;39844;52.496;13.482;2022-12-05T05:46:09;11.63;;;6.10;;
53931;SDS011;39844;52.496;13.482;2022-12-05T05:48:35;14.30;;;7.20;;
53931;SDS011;39844;52.496;13.482;2022-12-05T05:51:02;13.03;;;7.30;;
53931;SDS011;39844;52.496;13.482;2022-12-05T05:53:29;11.90;;;7.23;;
53931;SDS011;39844;52.496;13.482;2022-12-05T05:55:55;13.47;;;6.43;;
53931;SDS011;39844;52.496;13.482;2022-12-05T05:58:20;11.77;;;6.27;;
53931;SDS011;39844;52.496;13.482;2022-12-05T06:00:45;16.37;;;6.97;;
53931;SDS011;39844;52.496;13.482;2022-12-05T06:03:11;10.83;;;6.43;;
53931;SDS011;39844;52.496;13.482;2022-12-05T06:05:36;10.87;;;6.33;;
53931;SDS011;39844;52.496;13.482;2022-12-05T06:08:02;13.20;;;6.23;;
53931;SDS011;39844;52.496;13.482;2022-12-05T06:10:27;11.90;;;6.63;;
53931;SDS011;39844;52.496;13.482;2022-12-05T06:12:53;9.87;;;6.37;;
53931;SDS011;39844;52.496;13.482;2022-12-05T06:15:18;16.70;;;6.93;;
53931;SDS011;39844;52.496;13.482;2022-12-05T06:17:43;15.47;;;6.97;;
53931;SDS011;39844;52.496;13.482;2022-12-05T06:20:09;9.67;;;5.87;;
53931;SDS011;39844;52.496;13.482;2022-12-05T06:22:34;10.53;;;6.00;;
53931;SDS011;39844;52.496;13.482;2022-12-05T06:24:59;9.33;;;5.27;;
53931;SDS011;39844;52.496;13.482;2022-12-05T06:27:26;13.00;;;5.93;;
53931;SDS011;39844;52.496;13.482;2022-12-05T06:29:53;11.03;;;6.43;;
53931;SDS011;39844;52.496;13.482;2022-12-05T06:32:18;18.07;;;7.47;;
53931;SDS011;39844;52.496;13.482;2022-12-05T06:34:43;12.50;;;6.50;;
53931;SDS011;39844;52.496;13.482;2022-12-05T06:37:09;10.10;;;6.23;;
53931;SDS011;39844;52.496;13.482;2022-12-05T06:39:34;10.17;;;5.27;;
53931;SDS011;39844;52.496;13.482;2022-12-05T06:41:59;12.30;;;7.03;;
53931;SDS011;39844;52.496;13.482;2022-12-05T06:44:25;10.90;;;5.77;;
53931;SDS011;39844;52.496;13.482;2022-12-05T06:46:50;11.90;;;5.63;;
53931;SDS011;39844;52.496;13.482;2022-12-05T06:49:15;11.43;;;6.80;;
53931;SDS011;39844;52.496;13.482;2022-12-05T06:51:40;9.03;;;5.93;;
53931;SDS011;39844;52.496;13.482;2022-12-05T06:54:06;11.50;;;5.63;;
53931;SDS011;39844;52.496;13.482;2022-12-05T06:56:31;12.03;;;5.93;;
53931;SDS011;39844;52.496;13.482;2022-12-05T06:58:56;9.70;;;5.47;;
53931;SDS011;39844;52.496;13.482;2022-12-05T07:01:22;14.30;;;6.47;;
53931;SDS011;39844;52.496;13.482;2022-12-05T07:03:48;9.47;;;5.67;;
53931;SDS011;39844;52.496;13.482;2022-12-05T07:06:14;10.87;;;6.00;;
53931;SDS011;39844;52.496;13.482;2022-12-05T07:08:40;9.13;;;4.80;;
53931;SDS011;39844;52.496;13.482;2022-12-05T07:11:06;13.30;;;5.80;;
53931;SDS011;39844;52.496;13.482;2022-12-05T07:13:32;11.97;;;7.20;;
53931;SDS011;39844;52.496;13.482;2022-12-05T07:15:57;7.57;;;5.40;;
53931;SDS011;39844;52.496;13.482;2022-12-05T07:18:23;8.63;;;5.53;;
53931;SDS011;39844;52.496;13.482;2022-12-05T07:20:58;15.83;;;5.93;;
53931;SDS011;39844;52.496;13.482;2022-12-05T07:23:25;12.17;;;6.37;;
53931;SDS011;39844;52.496;13.482;2022-12-05T07:25:51;10.77;;;6.33;;
53931;SDS011;39844;52.496;13.482;2022-12-05T07:28:16;13.67;;;6.00;;
53931;SDS011;39844;52.496;13.482;2022-12-05T07:30:41;16.10;;;6.77;;
53931;SDS011;39844;52.496;13.482;2022-12-05T07:33:06;14.53;;;7.33;;
53931;SDS011;39844;52.496;13.482;2022-12-05T07:35:32;9.00;;;5.77;;
53931;SDS011;39844;52.496;13.482;2022-12-05T07:37:57;10.13;;;6.37;;
53931;SDS011;39844;52.496;13.482;2022-12-05T07:40:23;9.63;;;5.60;;
53931;SDS011;39844;52.496;13.482;2022-12-05T07:42:48;9.10;;;5.60;;
53931;SDS011;39844;52.496;13.482;2022-12-05T07:45:13;12.83;;;5.90;;
53931;SDS011;39844;52.496;13.482;2022-12-05T07:47:39;7.47;;;5.33;;
53931;SDS011;39844;52.496;13.482;2022-12-05T07:50:04;11.47;;;6.10;;
53931;SDS011;39844;52.496;13.482;2022-12-05T07:52:30;9.10;;;5.37;;
53931;SDS011;39844;52.496;13.482;2022-12-05T07:54:55;16.83;;;6.17;;
53931;SDS011;39844;52.496;13.482;2022-12-05T07:57:21;12.30;;;5.70;;
53931;SDS011;39844;52.496;13.482;2022-12-05T07:59:46;9.27;;;5.43;;
53931;SDS011;39844;52.496;13.482;2022-12-05T08:02:11;8.90;;;5.53;;
53931;SDS011;39844;52.496;13.482;2022-12-05T08:04:36;8.20;;;5.30;;
53931;SDS011;39844;52.496;13.482;2022-12-05T08:07:02;10.87;;;5.90;;
53931;SDS011;39844;52.496;13.482;2022-12-05T08:09:27;7.23;;;4.50;;
53931;SDS011;39844;52.496;13.482;2022-12-05T08:11:52;8.73;;;5.00;;
53931;SDS011;39844;52.496;13.482;2022-12-05T08:14:18;8.33;;;5.57;;
53931;SDS011;39844;52.496;13.482;2022-12-05T08:16:43;9.43;;;5.90;;
53931;SDS011;39844;52.496;13.482;2022-12-05T08:19:10;9.53;;;5.27;;
53931;SDS011;39844;52.496;13.482;2022-12-05T08:21:36;7.17;;;4.93;;
53931;SDS011;39844;52.496;13.482;2022-12-05T08:24:05;8.80;;;4.57;;
53931;SDS011;39844;52.496;13.482;2022-12-05T08:26:32;7.93;;;5.53;;
53931;SDS011;39844;52.496;13.482;2022-12-05T08:29:00;10.13;;;6.23;;
53931;SDS011;39844;52.496;13.482;2022-12-05T08:31:27;8.47;;;6.20;;
53931;SDS011;39844;52.496;13.482;2022-12-05T08:33:55;9.17;;;5.83;;
53931;SDS011;39844;52.496;13.482;2022-12-05T08:36:21;14.87;;;6.70;;
53931;SDS011;39844;52.496;13.482;2022-12-05T08:38:46;11.63;;;5.87;;
53931;SDS011;39844;52.496;13.482;2022-12-05T08:41:13;13.60;;;6.47;;
53931;SDS011;39844;52.496;13.482;2022-12-05T08:43:41;11.40;;;6.03;;
53931;SDS011;39844;52.496;13.482;2022-12-05T08:46:07;13.33;;;6.53;;
53931;SDS011;39844;52.496;13.482;2022-12-05T08:48:33;7.40;;;5.47;;
53931;SDS011;39844;52.496;13.482;2022-12-05T08:50:59;9.50;;;5.77;;
53931;SDS011;39844;52.496;13.482;2022-12-05T08:53:29;11.57;;;5.90;;
53931;SDS011;39844;52.496;13.482;2022-12-05T08:55:55;10.17;;;5.47;;
53931;SDS011;39844;52.496;13.482;2022-12-05T08:58:23;8.70;;;5.27;;
53931;SDS011;39844;52.496;13.482;2022-12-05T09:00:49;10.93;;;6.30;;
53931;SDS011;39844;52.496;13.482;2022-12-05T09:03:14;9.40;;;6.63;;
53931;SDS011;39844;52.496;13.482;2022-12-05T09:05:40;8.93;;;5.60;;
53931;SDS011;39844;52.496;13.482;2022-12-05T09:08:05;10.77;;;5.50;;
53931;SDS011;39844;52.496;13.482;2022-12-05T09:10:30;7.17;;;5.33;;
53931;SDS011;39844;52.496;13.482;2022-12-05T09:12:56;10.57;;;5.27;;
53931;SDS011;39844;52.496;13.482;2022-12-05T09:15:21;7.47;;;5.03;;
53931;SDS011;39844;52.496;13.482;2022-12-05T09:17:46;6.37;;;4.30;;
53931;SDS011;39844;52.496;13.482;2022-12-05T09:20:12;9.43;;;5.23;;
53931;SDS011;39844;52.496;13.482;2022-12-05T09:22:38;10.33;;;4.77;;
53931;SDS011;39844;52.496;13.482;2022-12-05T09:25:04;7.17;;;4.90;;
53931;SDS011;39844;52.496;13.482;2022-12-05T09:27:30;5.97;;;4.93;;
53931;SDS011;39844;52.496;13.482;2022-12-05T09:29:55;5.57;;;4.07;;
53931;SDS011;39844;52.496;13.482;2022-12-05T09:32:20;7.83;;;4.53;;
53931;SDS011;39844;52.496;13.482;2022-12-05T09:34:46;9.93;;;5.23;;
53931;SDS011;39844;52.496;13.482;2022-12-05T09:37:11;7.20;;;5.17;;
53931;SDS011;39844;52.496;13.482;2022-12-05T09:39:36;7.73;;;4.47;;
53931;SDS011;39844;52.496;13.482;2022-12-05T09:42:08;10.97;;;4.37;;
53931;SDS011;39844;52.496;13.482;2022-12-05T09:50:23;5.37;;;3.83;;
53931;SDS011;39844;52.496;13.482;2022-12-05T09:55:22;7.97;;;5.00;;
53931;SDS011;39844;52.496;13.482;2022-12-05T09:57:51;6.63;;;4.80;;
53931;SDS011;39844;52.496;13.482;2022-12-05T10:00:20;6.43;;;3.87;;
53931;SDS011;39844;52.496;13.482;2022-12-05T10:08:20;7.50;;;4.20;;
53931;SDS011;39844;52.496;13.482;2022-12-05T10:16:24;5.70;;;4.47;;
53931;SDS011;39844;52.496;13.482;2022-12-05T10:19:02;6.57;;;4.43;;
53931;SDS011;39844;52.496;13.482;2022-12-05T10:24:31;12.17;;;5.03;;
53931;SDS011;39844;52.496;13.482;2022-12-05T10:27:03;9.30;;;4.83;;
53931;SDS011;39844;52.496;13.482;2022-12-05T10:29:32;5.90;;;4.10;;
53931;SDS011;39844;52.496;13.482;2022-12-05T10:32:36;6.77;;;4.47;;
53931;SDS011;39844;52.496;13.482;2022-12-05T10:35:11;8.60;;;5.17;;
53931;SDS011;39844;52.496;13.482;2022-12-05T10:37:40;9.67;;;4.40;;
53931;SDS011;39844;52.496;13.482;2022-12-05T10:40:12;5.17;;;4.07;;
53931;SDS011;39844;52.496;13.482;2022-12-05T10:42:37;9.20;;;4.07;;
53931;SDS011;39844;52.496;13.482;2022-12-05T10:45:07;6.47;;;4.27;;
53931;SDS011;39844;52.496;13.482;2022-12-05T10:47:38;8.43;;;4.83;;
53931;SDS011;39844;52.496;13.482;2022-12-05T10:50:16;5.37;;;4.50;;
53931;SDS011;39844;52.496;13.482;2022-12-05T10:52:54;5.97;;;4.17;;
53931;SDS011;39844;52.496;13.482;2022-12-05T10:55:28;7.27;;;4.50;;
53931;SDS011;39844;52.496;13.482;2022-12-05T10:58:12;9.90;;;5.17;;
53931;SDS011;39844;52.496;13.482;2022-12-05T11:00:40;7.33;;;4.90;;
53931;SDS011;39844;52.496;13.482;2022-12-05T11:03:15;5.97;;;4.17;;
53931;SDS011;39844;52.496;13.482;2022-12-05T11:05:48;6.63;;;4.37;;
53931;SDS011;39844;52.496;13.482;2022-12-05T11:08:30;8.33;;;5.10;;
53931;SDS011;39844;52.496;13.482;2022-12-05T11:11:04;7.33;;;4.70;;
53931;SDS011;39844;52.496;13.482;2022-12-05T11:13:50;6.47;;;4.70;;
53931;SDS011;39844;52.496;13.482;2022-12-05T11:16:24;7.20;;;4.00;;
53931;SDS011;39844;52.496;13.482;2022-12-05T11:18:52;9.77;;;5.03;;
53931;SDS011;39844;52.496;13.482;2022-12-05T11:21:18;8.10;;;4.80;;
53931;SDS011;39844;52.496;13.482;2022-12-05T11:23:43;7.33;;;4.57;;
53931;SDS011;39844;52.496;13.482;2022-12-05T11:28:56;6.67;;;4.13;;
53931;SDS011;39844;52.496;13.482;2022-12-05T11:31:24;8.40;;;4.27;;
53931;SDS011;39844;52.496;13.482;2022-12-05T11:33:59;8.47;;;4.70;;
53931;SDS011;39844;52.496;13.482;2022-12-05T11:36:34;9.53;;;5.13;;
53931;SDS011;39844;52.496;13.482;2022-12-05T11:39:04;4.97;;;3.93;;
53931;SDS011;39844;52.496;13.482;2022-12-05T11:44:20;5.57;;;3.80;;
53931;SDS011;39844;52.496;13.482;2022-12-05T11:55:48;6.63;;;3.93;;
53931;SDS011;39844;52.496;13.482;2022-12-05T12:09:19;7.67;;;4.93;;
53931;SDS011;39844;52.496;13.482;2022-12-05T12:12:06;6.63;;;4.60;;
53931;SDS011;39844;52.496;13.482;2022-12-05T12:17:37;5.93;;;4.20;;
53931;SDS011;39844;52.496;13.482;2022-12-05T12:20:38;8.17;;;4.73;;
53931;SDS011;39844;52.496;13.482;2022-12-05T12:23:22;4.37;;;3.47;;
53931;SDS011;39844;52.496;13.482;2022-12-05T12:26:03;7.60;;;4.27;;
53931;SDS011;39844;52.496;13.482;2022-12-05T12:28:51;6.67;;;4.40;;
53931;SDS011;39844;52.496;13.482;2022-12-05T12:45:55;5.27;;;4.27;;
53931;SDS011;39844;52.496;13.482;2022-12-05T12:48:23;8.60;;;4.37;;
53931;SDS011;39844;52.496;13.482;2022-12-05T12:51:03;7.37;;;4.63;;
53931;SDS011;39844;52.496;13.482;2022-12-05T12:56:22;9.17;;;5.27;;
53931;SDS011;39844;52.496;13.482;2022-12-05T13:01:45;6.83;;;4.70;;
53931;SDS011;39844;52.496;13.482;2022-12-05T13:04:14;9.07;;;5.30;;
53931;SDS011;39844;52.496;13.482;2022-12-05T13:06:46;7.73;;;4.33;;
53931;SDS011;39844;52.496;13.482;2022-12-05T13:09:21;10.13;;;5.37;;
53931;SDS011;39844;52.496;13.482;2022-12-05T13:12:01;9.67;;;4.80;;
53931;SDS011;39844;52.496;13.482;2022-12-05T13:14:31;11.27;;;4.70;;
53931;SDS011;39844;52.496;13.482;2022-12-05T13:16:59;5.47;;;3.80;;
53931;SDS011;39844;52.496;13.482;2022-12-05T13:19:29;7.20;;;4.63;;
53931;SDS011;39844;52.496;13.482;2022-12-05T13:22:01;8.43;;;4.90;;
53931;SDS011;39844;52.496;13.482;2022-12-05T13:24:27;7.63;;;4.60;;
53931;SDS011;39844;52.496;13.482;2022-12-05T13:26:53;8.90;;;4.50;;
53931;SDS011;39844;52.496;13.482;2022-12-05T13:29:46;9.43;;;5.03;;
53931;SDS011;39844;52.496;13.482;2022-12-05T13:32:32;7.10;;;4.93;;
53931;SDS011;39844;52.496;13.482;2022-12-05T13:37:30;11.83;;;5.17;;
53931;SDS011;39844;52.496;13.482;2022-12-05T13:39:57;11.87;;;5.70;;
53931;SDS011;39844;52.496;13.482;2022-12-05T13:42:26;14.87;;;5.63;;
53931;SDS011;39844;52.496;13.482;2022-12-05T13:44:57;10.33;;;4.70;;
53931;SDS011;39844;52.496;13.482;2022-12-05T13:47:35;11.53;;;4.83;;
53931;SDS011;39844;52.496;13.482;2022-12-05T13:50:15;10.47;;;4.70;;
53931;SDS011;39844;52.496;13.482;2022-12-05T13:52:55;8.13;;;5.07;;
53931;SDS011;39844;52.496;13.482;2022-12-05T13:55:34;7.97;;;4.70;;
53931;SDS011;39844;52.496;13.482;2022-12-05T13:58:35;12.17;;;6.00;;
53931;SDS011;39844;52.496;13.482;2022-12-05T14:00:48;11.43;;;5.27;;
53931;SDS011;39844;52.496;13.482;2022-12-05T14:05:49;12.63;;;5.80;;
53931;SDS011;39844;52.496;13.482;2022-12-05T14:15:47;7.50;;;4.90;;
53931;SDS011;39844;52.496;13.482;2022-12-05T14:21:23;11.03;;;5.67;;
53931;SDS011;39844;52.496;13.482;2022-12-05T14:32:27;7.10;;;4.70;;
53931;SDS011;39844;52.496;13.482;2022-12-05T14:34:57;11.70;;;4.50;;
53931;SDS011;39844;52.496;13.482;2022-12-05T14:37:55;7.33;;;5.30;;
53931;SDS011;39844;52.496;13.482;2022-12-05T14:43:07;8.80;;;4.73;;
53931;SDS011;39844;52.496;13.482;2022-12-05T14:50:46;10.50;;;6.20;;
53931;SDS011;39844;52.496;13.482;2022-12-05T14:58:36;13.87;;;5.70;;
53931;SDS011;39844;52.496;13.482;2022-12-05T15:04:09;13.07;;;5.50;;
53931;SDS011;39844;52.496;13.482;2022-12-05T15:06:51;12.27;;;5.63;;
53931;SDS011;39844;52.496;13.482;2022-12-05T15:12:21;14.23;;;6.13;;
53931;SDS011;39844;52.496;13.482;2022-12-05T15:15:00;6.73;;;5.07;;
53931;SDS011;39844;52.496;13.482;2022-12-05T15:17:29;9.83;;;5.47;;
53931;SDS011;39844;52.496;13.482;2022-12-05T15:20:05;11.73;;;5.00;;
53931;SDS011;39844;52.496;13.482;2022-12-05T15:22:38;12.60;;;6.33;;
53931;SDS011;39844;52.496;13.482;2022-12-05T15:25:13;14.17;;;5.90;;
53931;SDS011;39844;52.496;13.482;2022-12-05T15:27:55;10.07;;;5.90;;
53931;SDS011;39844;52.496;13.482;2022-12-05T15:30:23;10.63;;;5.37;;
53931;SDS011;39844;52.496;13.482;2022-12-05T15:32:49;17.57;;;6.80;;
53931;SDS011;39844;52.496;13.482;2022-12-05T15:35:15;15.27;;;6.23;;
53931;SDS011;39844;52.496;13.482;2022-12-05T15:38:04;14.43;;;5.53;;
53931;SDS011;39844;52.496;13.482;2022-12-05T15:40:33;11.47;;;5.83;;
53931;SDS011;39844;52.496;13.482;2022-12-05T15:42:59;12.70;;;6.33;;
53931;SDS011;39844;52.496;13.482;2022-12-05T15:45:25;16.67;;;6.10;;
53931;SDS011;39844;52.496;13.482;2022-12-05T15:47:53;11.80;;;5.70;;
53931;SDS011;39844;52.496;13.482;2022-12-05T16:09:23;11.70;;;5.63;;
53931;SDS011;39844;52.496;13.482;2022-12-05T16:14:28;12.03;;;6.00;;
53931;SDS011;39844;52.496;13.482;2022-12-05T16:16:56;13.13;;;6.10;;
53931;SDS011;39844;52.496;13.482;2022-12-05T16:19:23;11.10;;;5.53;;
53931;SDS011;39844;52.496;13.482;2022-12-05T16:22:08;12.10;;;5.27;;
53931;SDS011;39844;52.496;13.482;2022-12-05T16:24:52;9.73;;;5.07;;
53931;SDS011;39844;52.496;13.482;2022-12-05T16:27:21;12.57;;;6.03;;
53931;SDS011;39844;52.496;13.482;2022-12-05T16:29:46;10.00;;;5.17;;
53931;SDS011;39844;52.496;13.482;2022-12-05T16:32:22;11.70;;;5.50;;
53931;SDS011;39844;52.496;13.482;2022-12-05T16:34:49;13.20;;;6.67;;
53931;SDS011;39844;52.496;13.482;2022-12-05T16:37:26;15.90;;;6.63;;
53931;SDS011;39844;52.496;13.482;2022-12-05T16:39:52;13.83;;;5.80;;
53931;SDS011;39844;52.496;13.482;2022-12-05T16:42:23;11.03;;;5.40;;
53931;SDS011;39844;52.496;13.482;2022-12-05T16:44:53;10.47;;;5.33;;
53931;SDS011;39844;52.496;13.482;2022-12-05T16:47:24;11.20;;;5.80;;
53931;SDS011;39844;52.496;13.482;2022-12-05T16:53:01;10.37;;;5.80;;
53931;SDS011;39844;52.496;13.482;2022-12-05T16:55:35;10.10;;;5.60;;
53931;SDS011;39844;52.496;13.482;2022-12-05T16:58:02;9.77;;;5.13;;
53931;SDS011;39844;52.496;13.482;2022-12-05T17:00:28;11.40;;;6.03;;
53931;SDS011;39844;52.496;13.482;2022-12-05T17:02:53;7.17;;;4.37;;
53931;SDS011;39844;52.496;13.482;2022-12-05T17:05:19;7.30;;;5.10;;
53931;SDS011;39844;52.496;13.482;2022-12-05T17:07:44;15.43;;;6.33;;
53931;SDS011;39844;52.496;13.482;2022-12-05T17:10:09;10.17;;;4.70;;
53931;SDS011;39844;52.496;13.482;2022-12-05T17:12:35;10.03;;;5.70;;
53931;SDS011;39844;52.496;13.482;2022-12-05T17:15:01;12.90;;;5.67;;
53931;SDS011;39844;52.496;13.482;2022-12-05T17:17:27;10.70;;;5.93;;
53931;SDS011;39844;52.496;13.482;2022-12-05T17:19:52;9.90;;;5.40;;
53931;SDS011;39844;52.496;13.482;2022-12-05T17:22:17;12.27;;;5.47;;
53931;SDS011;39844;52.496;13.482;2022-12-05T17:24:43;13.33;;;4.80;;
53931;SDS011;39844;52.496;13.482;2022-12-05T17:27:08;11.87;;;5.40;;
53931;SDS011;39844;52.496;13.482;2022-12-05T17:29:35;10.77;;;5.57;;